createdAt,value
2017-12-08T00:01:18.697Z,123.33
2017-12-08T00:03:45.234Z,97.27
2017-12-08T00:06:11.688Z,90.77
2017-12-08T00:08:38.176Z,95.93
2017-12-08T00:11:04.592Z,78.67
2017-12-08T00:13:31.066Z,83.77
2017-12-08T00:15:57.541Z,74.53
2017-12-08T00:18:24.052Z,80.43
2017-12-08T00:20:50.517Z,80.73
2017-12-08T00:23:17.023Z,80.57
2017-12-08T00:25:43.488Z,79.27
2017-12-08T00:28:09.993Z,79.93
2017-12-08T00:30:36.456Z,81.97
2017-12-08T00:33:02.946Z,82.93
2017-12-08T00:35:29.396Z,83.70
2017-12-08T00:37:55.828Z,84.93
2017-12-08T00:40:22.284Z,79.70
2017-12-08T00:42:48.776Z,82.80
2017-12-08T00:45:15.236Z,87.33
2017-12-08T00:47:41.656Z,81.97
2017-12-08T00:50:08.052Z,79.93
2017-12-08T00:52:34.630Z,76.70
2017-12-08T00:55:01.148Z,75.77
2017-12-08T00:57:27.703Z,80.07
2017-12-08T00:59:54.192Z,69.07
2017-12-08T01:02:20.637Z,69.13
2017-12-08T01:04:47.089Z,68.50
2017-12-08T01:07:13.601Z,70.27
2017-12-08T01:09:40.052Z,65.23
2017-12-08T01:12:06.488Z,63.47
2017-12-08T01:14:32.974Z,65.10
2017-12-08T01:16:59.457Z,58.80
2017-12-08T01:19:25.852Z,59.23
2017-12-08T01:21:52.353Z,61.87
2017-12-08T01:24:18.808Z,59.33
2017-12-08T01:26:45.415Z,67.67
2017-12-08T01:29:11.913Z,64.77
2017-12-08T01:31:38.313Z,65.03
2017-12-08T01:34:04.749Z,57.40
2017-12-08T01:36:31.219Z,55.97
2017-12-08T01:38:57.889Z,51.47
2017-12-08T01:41:24.300Z,52.10
2017-12-08T01:43:50.793Z,48.20
2017-12-08T01:46:17.292Z,48.13
2017-12-08T01:48:43.769Z,49.30
2017-12-08T01:51:10.361Z,50.93
2017-12-08T01:53:36.835Z,50.10
2017-12-08T01:56:03.325Z,50.53
2017-12-08T01:58:29.963Z,50.23
2017-12-08T02:00:56.504Z,50.77
2017-12-08T02:03:23.142Z,55.70
2017-12-08T02:05:49.679Z,51.90
2017-12-08T02:08:16.105Z,47.93
2017-12-08T02:10:42.605Z,56.33
2017-12-08T02:13:09.167Z,53.53
2017-12-08T02:15:35.597Z,59.87
2017-12-08T02:18:02.133Z,59.70
2017-12-08T02:20:28.778Z,57.37
2017-12-08T02:22:55.277Z,58.23
2017-12-08T02:25:21.773Z,54.67
2017-12-08T02:27:48.376Z,57.30
2017-12-08T02:30:14.884Z,58.50
2017-12-08T02:32:41.449Z,45.97
2017-12-08T02:35:08.003Z,46.23
2017-12-08T02:37:34.472Z,40.23
2017-12-08T02:40:00.908Z,45.93
2017-12-08T02:42:27.393Z,48.40
2017-12-08T02:44:54.063Z,52.90
2017-12-08T02:47:20.613Z,50.97
2017-12-08T02:49:47.197Z,52.13
2017-12-08T02:52:13.737Z,60.17
2017-12-08T02:54:40.209Z,55.40
2017-12-08T02:57:06.725Z,52.70
2017-12-08T02:59:33.169Z,61.10
2017-12-08T03:01:59.794Z,53.33
2017-12-08T03:04:26.289Z,50.03
2017-12-08T03:06:52.761Z,53.47
2017-12-08T03:09:19.307Z,50.67
2017-12-08T03:11:45.857Z,53.87
2017-12-08T03:14:12.321Z,56.77
2017-12-08T03:16:39.010Z,53.13
2017-12-08T03:19:05.526Z,51.67
2017-12-08T03:21:32.079Z,49.23
2017-12-08T03:23:58.573Z,51.87
2017-12-08T03:26:25.149Z,53.03
2017-12-08T03:28:51.637Z,48.93
2017-12-08T03:31:18.049Z,51.83
2017-12-08T03:33:44.628Z,47.37
2017-12-08T03:36:11.093Z,52.50
2017-12-08T03:38:37.552Z,53.93
2017-12-08T03:41:04.080Z,56.80
2017-12-08T03:43:30.694Z,53.90
2017-12-08T03:45:57.146Z,47.77
2017-12-08T03:48:23.630Z,45.73
2017-12-08T03:50:50.100Z,42.00
2017-12-08T03:53:16.560Z,41.33
2017-12-08T03:55:43.148Z,40.93
2017-12-08T03:58:09.688Z,41.47
2017-12-08T04:00:36.347Z,45.43
2017-12-08T04:03:02.861Z,49.77
2017-12-08T04:05:29.316Z,39.90
2017-12-08T04:07:55.781Z,40.60
2017-12-08T04:10:22.289Z,45.17
2017-12-08T04:12:48.818Z,42.53
2017-12-08T04:15:15.261Z,38.30
2017-12-08T04:17:41.786Z,36.07
2017-12-08T04:20:08.230Z,33.07
2017-12-08T04:22:34.694Z,31.77
2017-12-08T04:25:01.169Z,25.97
2017-12-08T04:27:27.633Z,26.33
2017-12-08T04:29:54.156Z,28.20
2017-12-08T04:32:20.685Z,28.83
2017-12-08T04:34:47.139Z,26.20
2017-12-08T04:37:13.616Z,28.20
2017-12-08T04:39:40.097Z,25.17
2017-12-08T04:42:06.553Z,28.23
2017-12-08T04:44:32.997Z,26.83
2017-12-08T04:46:59.605Z,28.80
2017-12-08T04:49:26.117Z,33.70
2017-12-08T04:51:52.799Z,32.37
2017-12-08T04:54:19.369Z,34.37
2017-12-08T04:56:45.839Z,39.23
2017-12-08T04:59:12.307Z,37.77
2017-12-08T05:01:38.900Z,36.67
2017-12-08T05:04:05.353Z,40.97
2017-12-08T05:06:31.805Z,43.17
2017-12-08T05:08:58.280Z,45.07
2017-12-08T05:11:24.733Z,44.70
2017-12-08T05:13:51.270Z,53.97
2017-12-08T05:16:17.761Z,52.37
2017-12-08T05:18:44.213Z,54.37
2017-12-08T05:21:10.722Z,55.90
2017-12-08T05:23:37.293Z,61.53
2017-12-08T05:26:03.780Z,55.87
2017-12-08T05:28:30.228Z,64.87
2017-12-08T05:30:56.722Z,69.87
2017-12-08T05:33:23.277Z,71.50
2017-12-08T05:35:49.696Z,74.30
2017-12-08T05:38:16.236Z,62.73
2017-12-08T05:40:42.702Z,83.23
2017-12-08T05:43:09.509Z,113.57
2017-12-08T05:45:36.100Z,129.93
2017-12-08T05:48:02.574Z,120.53
2017-12-08T05:50:29.097Z,119.00
2017-12-08T05:52:55.757Z,120.50
2017-12-08T05:55:22.376Z,136.10
2017-12-08T05:57:49.042Z,127.77
2017-12-08T06:00:15.573Z,113.67
2017-12-08T06:02:42.301Z,99.77
2017-12-08T06:05:08.819Z,97.67
2017-12-08T06:07:35.304Z,105.77
2017-12-08T06:10:01.744Z,116.63
2017-12-08T06:12:28.320Z,113.83
2017-12-08T06:14:54.844Z,111.63
2017-12-08T06:17:21.277Z,116.17
2017-12-08T06:19:47.736Z,111.37
2017-12-08T06:22:14.221Z,101.23
2017-12-08T06:24:41.005Z,103.47
2017-12-08T06:27:07.480Z,97.67
2017-12-08T06:29:33.981Z,94.70
2017-12-08T06:32:00.529Z,96.53
2017-12-08T06:34:26.945Z,102.47
2017-12-08T06:36:53.429Z,106.30
2017-12-08T06:39:19.843Z,97.20
2017-12-08T06:41:46.269Z,99.43
2017-12-08T06:44:12.781Z,100.27
2017-12-08T06:46:39.317Z,110.00
2017-12-08T06:49:05.847Z,110.00
2017-12-08T06:51:32.309Z,100.60
2017-12-08T06:53:58.842Z,104.43
2017-12-08T06:56:25.289Z,99.43
2017-12-08T06:58:51.754Z,112.10
2017-12-08T07:01:18.445Z,115.87
2017-12-08T07:03:45.112Z,106.53
2017-12-08T07:06:12.013Z,200.47
2017-12-08T07:08:38.528Z,250.73
2017-12-08T07:11:05.295Z,114.37
2017-12-08T07:13:31.895Z,118.40
2017-12-08T07:15:58.309Z,137.03
2017-12-08T07:18:24.816Z,125.27
2017-12-08T07:20:51.550Z,134.40
2017-12-08T07:23:18.188Z,138.70
2017-12-08T07:25:44.683Z,138.30
2017-12-08T07:28:11.346Z,133.93
2017-12-08T07:30:37.912Z,133.70
2017-12-08T07:33:04.840Z,134.83
2017-12-08T07:35:31.684Z,131.03
2017-12-08T07:37:58.224Z,137.27
2017-12-08T07:40:24.846Z,163.03
2017-12-08T07:42:51.330Z,163.80
2017-12-08T07:45:17.841Z,164.00
2017-12-08T07:47:44.345Z,163.13
2017-12-08T07:50:10.917Z,191.07
2017-12-08T07:52:37.439Z,201.40
2017-12-08T07:55:03.901Z,190.93
2017-12-08T07:57:30.388Z,213.80
2017-12-08T07:59:56.920Z,209.70
2017-12-08T08:02:23.357Z,195.17
2017-12-08T08:04:49.904Z,176.97
2017-12-08T08:07:16.425Z,154.93
2017-12-08T08:09:42.839Z,144.47
2017-12-08T08:12:09.354Z,134.10
2017-12-08T08:14:35.880Z,167.93
2017-12-08T08:17:02.366Z,158.83
2017-12-08T08:19:28.905Z,127.40
2017-12-08T08:21:55.436Z,128.17
2017-12-08T08:24:22.091Z,117.70
2017-12-08T08:26:48.730Z,92.07
2017-12-08T08:29:15.368Z,88.40
2017-12-08T08:31:41.989Z,201.47
2017-12-08T08:34:08.625Z,136.73
2017-12-08T08:36:35.120Z,137.73
2017-12-08T08:39:01.700Z,149.17
2017-12-08T08:41:28.337Z,138.23
2017-12-08T08:43:54.888Z,139.17
2017-12-08T08:46:21.458Z,119.13
2017-12-08T08:48:48.107Z,135.90
2017-12-08T08:51:14.583Z,138.60
2017-12-08T08:53:41.236Z,106.87
2017-12-08T08:56:07.874Z,97.63
2017-12-08T08:58:35.351Z,109.23
2017-12-08T09:01:03.127Z,110.53
2017-12-08T09:03:30.147Z,100.03
2017-12-08T09:05:56.733Z,103.90
2017-12-08T09:08:23.338Z,95.80
2017-12-08T09:10:49.889Z,82.13
2017-12-08T09:13:16.495Z,76.40
2017-12-08T09:15:42.990Z,59.87
2017-12-08T09:18:09.670Z,68.13
2017-12-08T09:20:36.138Z,57.67
2017-12-08T09:23:02.954Z,73.67
2017-12-08T09:25:29.584Z,51.27
2017-12-08T09:27:56.116Z,48.97
2017-12-08T09:30:22.684Z,45.70
2017-12-08T09:32:49.301Z,37.87
2017-12-08T09:35:15.977Z,37.17
2017-12-08T09:37:42.392Z,31.67
2017-12-08T09:40:08.905Z,24.20
2017-12-08T09:42:35.360Z,24.67
2017-12-08T09:45:01.866Z,22.43
2017-12-08T09:47:28.673Z,22.43
2017-12-08T09:49:55.311Z,83.17
2017-12-08T09:52:21.779Z,33.33
2017-12-08T09:54:48.353Z,28.60
2017-12-08T09:57:14.837Z,25.57
2017-12-08T09:59:41.285Z,22.27
2017-12-08T10:02:09.065Z,22.47
2017-12-08T10:04:35.505Z,27.13
2017-12-08T10:07:02.211Z,27.30
2017-12-08T10:09:28.845Z,22.90
2017-12-08T10:11:55.381Z,23.83
2017-12-08T10:14:25.016Z,21.87
2017-12-08T10:16:54.838Z,26.77
2017-12-08T10:19:21.456Z,23.97
2017-12-08T10:21:47.941Z,18.30
2017-12-08T10:24:14.509Z,17.17
2017-12-08T10:26:41.747Z,19.70
2017-12-08T10:29:08.601Z,20.17
2017-12-08T10:31:35.123Z,19.13
2017-12-08T10:34:01.555Z,17.63
2017-12-08T10:36:28.019Z,15.40
2017-12-08T10:38:54.571Z,17.13
2017-12-08T10:41:21.076Z,17.97
2017-12-08T10:43:47.614Z,18.20
2017-12-08T10:46:14.376Z,18.30
2017-12-08T10:48:40.888Z,21.17
2017-12-08T10:51:07.321Z,17.50
2017-12-08T10:53:34.033Z,17.33
2017-12-08T10:56:00.601Z,16.77
2017-12-08T10:58:27.121Z,18.00
2017-12-08T11:00:53.688Z,354.97
2017-12-08T11:03:20.145Z,126.73
2017-12-08T11:05:46.625Z,110.83
2017-12-08T11:08:13.172Z,20.53
2017-12-08T11:10:39.943Z,22.20
2017-12-08T11:13:06.399Z,22.80
2017-12-08T11:15:32.917Z,20.07
2017-12-08T11:17:59.348Z,19.73
2017-12-08T11:20:26.689Z,18.63
2017-12-08T11:22:53.157Z,22.53
2017-12-08T11:25:19.652Z,18.87
2017-12-08T11:27:46.140Z,20.50
2017-12-08T11:30:12.612Z,21.50
2017-12-08T11:32:39.265Z,22.90
2017-12-08T11:35:05.693Z,24.70
2017-12-08T11:37:32.169Z,21.77
2017-12-08T11:39:58.772Z,22.93
2017-12-08T11:42:25.492Z,21.03
2017-12-08T11:44:52.125Z,17.07
2017-12-08T11:47:18.787Z,20.43
2017-12-08T11:49:45.328Z,22.07
2017-12-08T11:52:11.858Z,19.80
2017-12-08T11:54:38.273Z,20.23
2017-12-08T11:57:04.809Z,20.10
2017-12-08T11:59:31.411Z,23.47
2017-12-08T12:01:57.849Z,24.07
2017-12-08T12:04:24.273Z,22.57
2017-12-08T12:06:50.725Z,21.83
2017-12-08T12:09:17.148Z,23.77
2017-12-08T12:11:43.605Z,22.13
2017-12-08T12:14:10.068Z,26.13
2017-12-08T12:16:36.586Z,26.10
2017-12-08T12:19:02.997Z,23.87
2017-12-08T12:21:29.476Z,26.67
2017-12-08T12:23:55.985Z,30.97
2017-12-08T12:26:22.398Z,25.57
2017-12-08T12:28:48.971Z,27.80
2017-12-08T12:31:15.609Z,24.83
2017-12-08T12:33:42.285Z,25.73
2017-12-08T12:36:08.845Z,20.93
2017-12-08T12:38:35.282Z,24.37
2017-12-08T12:41:01.751Z,22.13
2017-12-08T12:43:28.204Z,18.80
2017-12-08T12:45:54.641Z,18.73
2017-12-08T12:48:21.493Z,17.40
2017-12-08T12:50:48.065Z,19.70
2017-12-08T12:53:14.642Z,17.17
2017-12-08T12:55:41.112Z,18.40
2017-12-08T12:58:07.818Z,19.90
2017-12-08T13:00:34.350Z,18.50
2017-12-08T13:03:00.793Z,17.07
2017-12-08T13:05:27.314Z,20.47
2017-12-08T13:07:53.720Z,17.37
2017-12-08T13:10:20.175Z,21.60
2017-12-08T13:12:46.637Z,18.80
2017-12-08T13:15:13.063Z,19.57
2017-12-08T13:17:39.466Z,20.73
2017-12-08T13:20:05.961Z,17.63
2017-12-08T13:22:32.345Z,15.73
2017-12-08T13:24:58.732Z,16.67
2017-12-08T13:27:25.213Z,19.23
2017-12-08T13:29:51.564Z,19.60
2017-12-08T13:32:17.920Z,17.63
2017-12-08T13:34:44.354Z,20.60
2017-12-08T13:37:10.717Z,18.27
2017-12-08T13:39:37.109Z,15.90
2017-12-08T13:42:03.539Z,17.37
2017-12-08T13:44:29.912Z,16.17
2017-12-08T13:46:56.288Z,20.07
2017-12-08T13:49:22.672Z,18.57
2017-12-08T13:51:49.145Z,19.73
2017-12-08T13:54:27.578Z,18.60
2017-12-08T13:56:54.055Z,19.40
2017-12-08T13:59:20.444Z,25.27
2017-12-08T14:01:46.964Z,25.87
2017-12-08T14:04:13.392Z,25.90
2017-12-08T14:06:39.819Z,20.73
2017-12-08T14:09:06.545Z,23.33
2017-12-08T14:11:33.025Z,25.80
2017-12-08T14:13:59.449Z,26.10
2017-12-08T14:16:25.991Z,20.90
2017-12-08T14:18:52.381Z,24.50
2017-12-08T14:21:18.764Z,24.10
2017-12-08T14:23:45.191Z,21.83
2017-12-08T14:26:11.576Z,19.70
2017-12-08T14:28:37.941Z,22.83
2017-12-08T14:31:04.364Z,19.43
2017-12-08T14:33:30.724Z,44.97
2017-12-08T14:35:57.283Z,40.83
2017-12-08T14:38:23.677Z,45.07
2017-12-08T14:40:50.091Z,41.37
2017-12-08T14:43:16.476Z,30.70
2017-12-08T14:45:43.137Z,31.43
2017-12-08T14:48:09.595Z,28.77
2017-12-08T14:50:35.960Z,49.60
2017-12-08T14:53:02.367Z,39.17
2017-12-08T14:55:28.722Z,51.17
2017-12-08T14:57:55.108Z,208.70
2017-12-08T15:00:21.516Z,113.30
2017-12-08T15:02:47.992Z,97.30
2017-12-08T15:11:16.873Z,29.93
2017-12-08T15:13:49.341Z,68.47
2017-12-08T15:16:15.728Z,69.47
2017-12-08T15:18:42.181Z,53.17
2017-12-08T15:21:08.556Z,63.20
2017-12-08T15:23:34.961Z,63.17
2017-12-08T15:26:01.396Z,61.00
2017-12-08T15:28:27.761Z,102.47
2017-12-08T15:30:54.122Z,134.80
2017-12-08T15:33:20.555Z,62.20
2017-12-08T15:35:46.976Z,104.60
2017-12-08T15:38:13.549Z,70.10
2017-12-08T15:40:41.604Z,107.13
2017-12-08T15:43:08.152Z,123.97
2017-12-08T15:48:06.605Z,129.40
2017-12-08T15:50:33.015Z,136.53
2017-12-08T15:52:59.529Z,130.77
2017-12-08T15:55:44.236Z,175.33
2017-12-08T15:58:15.639Z,142.73
2017-12-08T16:00:42.093Z,146.37
2017-12-08T16:03:08.556Z,169.80
2017-12-08T16:05:34.936Z,164.27
2017-12-08T16:08:01.445Z,206.10
2017-12-08T16:10:27.912Z,193.47
2017-12-08T16:12:54.300Z,210.20
2017-12-08T16:15:20.849Z,206.07
2017-12-08T16:17:48.282Z,203.70
2017-12-08T16:20:14.669Z,184.27
2017-12-08T16:22:41.101Z,193.33
2017-12-08T16:25:07.660Z,195.97
2017-12-08T16:27:34.073Z,189.63
2017-12-08T16:30:00.481Z,145.17
2017-12-08T16:32:26.914Z,167.87
2017-12-08T16:34:53.324Z,187.77
2017-12-08T16:37:19.704Z,146.00
2017-12-08T16:39:46.188Z,139.10
2017-12-08T16:42:12.588Z,134.27
2017-12-08T16:44:38.996Z,138.07
2017-12-08T16:47:05.420Z,142.97
2017-12-08T16:49:31.760Z,160.67
2017-12-08T16:51:58.128Z,155.13
2017-12-08T16:54:24.512Z,141.63
2017-12-08T16:56:50.955Z,152.77
2017-12-08T16:59:17.520Z,143.93
2017-12-08T17:01:44.104Z,155.20
2017-12-08T17:04:10.457Z,172.70
2017-12-08T17:06:36.820Z,165.37
2017-12-08T17:09:03.516Z,112.33
2017-12-08T17:11:29.860Z,92.77
2017-12-08T17:13:56.389Z,89.43
2017-12-08T17:16:22.885Z,121.43
2017-12-08T17:18:49.273Z,146.83
2017-12-08T17:21:15.672Z,149.10
2017-12-08T17:23:42.116Z,151.83
2017-12-08T17:26:08.539Z,141.57
2017-12-08T17:28:34.987Z,127.20
2017-12-08T17:31:01.468Z,129.33
2017-12-08T17:33:27.915Z,150.10
2017-12-08T17:35:54.361Z,157.30
2017-12-08T17:38:20.793Z,164.97
2017-12-08T17:40:48.413Z,150.07
2017-12-08T17:43:14.809Z,157.03
2017-12-08T17:45:41.220Z,152.77
2017-12-08T17:48:07.574Z,144.07
2017-12-08T17:50:33.924Z,142.00
2017-12-08T17:53:00.355Z,125.93
2017-12-08T17:55:26.789Z,104.77
2017-12-08T17:57:53.173Z,134.30
2017-12-08T18:00:20.573Z,147.67
2017-12-08T18:02:46.965Z,155.70
2017-12-08T18:05:14.022Z,171.17
2017-12-08T18:07:40.609Z,168.33
2017-12-08T18:10:07.034Z,195.07
2017-12-08T18:12:34.840Z,198.70
2017-12-08T18:15:01.281Z,207.13
2017-12-08T18:17:27.672Z,242.37
2017-12-08T18:19:54.123Z,223.23
2017-12-08T18:22:20.680Z,225.47
2017-12-08T18:24:47.112Z,210.03
2017-12-08T18:27:13.506Z,225.47
2017-12-08T18:29:42.434Z,211.97
2017-12-08T18:32:08.898Z,229.23
2017-12-08T18:34:35.293Z,219.40
2017-12-08T18:37:01.861Z,214.50
2017-12-08T18:39:28.265Z,193.80
2017-12-08T18:41:54.688Z,167.90
2017-12-08T18:44:21.097Z,164.93
2017-12-08T18:46:47.495Z,158.33
2017-12-08T18:49:13.852Z,156.07
2017-12-08T18:51:40.292Z,134.63
2017-12-08T18:54:06.669Z,125.03
2017-12-08T18:56:33.076Z,125.77
2017-12-08T18:58:59.524Z,128.23
2017-12-08T19:01:25.910Z,127.87
2017-12-08T19:03:52.276Z,118.00
2017-12-08T19:06:18.706Z,118.67
2017-12-08T19:08:45.104Z,109.97
2017-12-08T19:11:11.621Z,108.60
2017-12-08T19:13:38.075Z,108.43
2017-12-08T19:16:04.439Z,103.30
2017-12-08T19:18:30.816Z,109.60
2017-12-08T19:20:57.287Z,116.80
2017-12-08T19:23:23.695Z,119.03
2017-12-08T19:25:50.172Z,126.87
2017-12-08T19:28:16.715Z,118.37
2017-12-08T19:30:43.100Z,122.23
2017-12-08T19:33:09.622Z,134.37
2017-12-08T19:35:36.466Z,143.27
2017-12-08T19:38:03.877Z,131.90
2017-12-08T19:40:30.281Z,129.83
2017-12-08T19:42:56.784Z,118.53
2017-12-08T19:45:23.166Z,111.93
2017-12-08T19:47:49.657Z,97.97
2017-12-08T19:50:16.113Z,88.17
2017-12-08T19:52:42.530Z,83.00
2017-12-08T19:55:08.904Z,88.40
2017-12-08T19:57:35.350Z,71.93
2017-12-08T20:00:01.926Z,71.43
2017-12-08T20:02:28.323Z,73.63
2017-12-08T20:04:54.790Z,76.10
2017-12-08T20:07:21.192Z,76.97
2017-12-08T20:09:47.657Z,79.10
2017-12-08T20:12:14.140Z,76.00
2017-12-08T20:14:40.529Z,76.13
2017-12-08T20:17:06.904Z,77.70
2017-12-08T20:19:33.356Z,81.90
2017-12-08T20:21:59.799Z,77.40
2017-12-08T20:24:26.190Z,70.30
2017-12-08T20:26:52.661Z,68.70
2017-12-08T20:29:19.052Z,80.63
2017-12-08T20:31:45.431Z,77.33
2017-12-08T20:34:11.896Z,87.00
2017-12-08T20:36:38.425Z,100.40
2017-12-08T20:39:04.980Z,94.63
2017-12-08T20:41:31.373Z,87.67
2017-12-08T20:43:57.705Z,88.23
2017-12-08T20:46:24.084Z,85.10
2017-12-08T20:48:50.487Z,86.53
2017-12-08T20:51:16.848Z,89.97
2017-12-08T20:53:43.254Z,99.47
2017-12-08T20:56:09.789Z,96.33
2017-12-08T20:58:36.197Z,101.17
2017-12-08T21:01:02.573Z,106.73
2017-12-08T21:03:29.017Z,111.03
2017-12-08T21:05:55.475Z,123.90
2017-12-08T21:08:21.884Z,135.07
2017-12-08T21:10:48.492Z,142.77
2017-12-08T21:13:14.864Z,141.60
2017-12-08T21:15:41.277Z,157.47
2017-12-08T21:18:07.790Z,136.47
2017-12-08T21:20:34.173Z,144.47
2017-12-08T21:23:00.536Z,144.63
2017-12-08T21:25:27.005Z,144.53
2017-12-08T21:27:53.496Z,130.17
2017-12-08T21:30:19.977Z,108.40
2017-12-08T21:32:46.390Z,91.13
2017-12-08T21:35:12.822Z,82.73
2017-12-08T21:37:39.180Z,78.13
2017-12-08T21:40:05.584Z,67.90
2017-12-08T21:42:31.944Z,70.30
2017-12-08T21:44:58.290Z,68.97
2017-12-08T21:47:24.785Z,73.87
2017-12-08T21:49:51.216Z,71.60
2017-12-08T21:52:17.600Z,69.87
2017-12-08T21:54:44.016Z,70.53
2017-12-08T21:57:10.360Z,70.60
2017-12-08T21:59:36.785Z,70.50
2017-12-08T22:02:03.280Z,78.97
2017-12-08T22:04:29.732Z,83.23
2017-12-08T22:06:56.124Z,81.47
2017-12-08T22:09:22.587Z,77.13
2017-12-08T22:11:48.945Z,79.33
2017-12-08T22:14:15.535Z,69.33
2017-12-08T22:16:41.989Z,73.43
2017-12-08T22:19:08.400Z,75.13
2017-12-08T22:21:34.849Z,74.90
2017-12-08T22:24:01.457Z,69.73
2017-12-08T22:26:27.904Z,64.70
2017-12-08T22:28:54.338Z,59.20
2017-12-08T22:31:20.760Z,56.10
2017-12-08T22:33:47.203Z,64.57
2017-12-08T22:36:13.708Z,55.87
2017-12-08T22:38:40.273Z,50.07
2017-12-08T22:41:06.827Z,49.67
2017-12-08T22:43:33.428Z,48.90
2017-12-08T22:45:59.899Z,49.97
2017-12-08T22:48:26.300Z,50.03
2017-12-08T22:50:52.830Z,50.83
2017-12-08T22:53:19.342Z,54.50
2017-12-08T22:55:45.711Z,56.77
2017-12-08T22:58:12.186Z,57.47
2017-12-08T23:00:38.664Z,56.77
2017-12-08T23:03:05.175Z,54.17
2017-12-08T23:05:31.549Z,54.80
2017-12-08T23:07:58.009Z,58.13
2017-12-08T23:10:24.411Z,58.93
2017-12-08T23:12:50.844Z,55.07
2017-12-08T23:15:17.399Z,58.37
2017-12-08T23:17:43.820Z,61.87
2017-12-08T23:20:10.217Z,60.10
2017-12-08T23:22:36.655Z,60.90
2017-12-08T23:25:03.139Z,62.43
2017-12-08T23:27:29.487Z,64.97
2017-12-08T23:29:55.908Z,55.03
2017-12-08T23:32:22.252Z,48.27
2017-12-08T23:34:48.596Z,50.43
2017-12-08T23:37:15.216Z,44.30
2017-12-08T23:39:41.750Z,48.00
2017-12-08T23:42:08.274Z,53.30
2017-12-08T23:44:34.685Z,44.03
2017-12-08T23:47:01.093Z,50.67
2017-12-08T23:49:27.491Z,51.47
2017-12-08T23:51:53.954Z,53.87
2017-12-08T23:54:20.264Z,59.47
2017-12-08T23:56:46.627Z,62.00
2017-12-08T23:59:13.009Z,55.33
